createdAt,value
2023-05-16T00:00:50.200Z,14.13
2023-05-16T00:03:19.504Z,14.13
2023-05-16T00:05:48.099Z,14.11
2023-05-16T00:08:17.375Z,14.10
2023-05-16T00:10:45.889Z,14.10
2023-05-16T00:13:20.265Z,13.96
2023-05-16T00:15:48.660Z,14.01
2023-05-16T00:18:17.478Z,13.93
2023-05-16T00:20:46.014Z,14.07
2023-05-16T00:23:15.652Z,14.06
2023-05-16T00:25:45.514Z,14.05
2023-05-16T00:28:13.937Z,13.98
2023-05-16T00:30:45.258Z,13.97
2023-05-16T00:33:13.634Z,13.87
2023-05-16T00:35:43.086Z,13.82
2023-05-16T00:38:12.748Z,13.75
2023-05-16T00:40:42.496Z,13.70
2023-05-16T00:43:11.406Z,13.65
2023-05-16T00:45:39.966Z,13.64
2023-05-16T00:48:10.318Z,13.58
2023-05-16T00:50:39.227Z,13.61
2023-05-16T00:53:08.251Z,13.75
2023-05-16T00:55:39.226Z,13.74
2023-05-16T00:58:09.999Z,13.75
2023-05-16T01:00:39.261Z,13.74
2023-05-16T01:03:16.545Z,13.74
2023-05-16T01:05:45.749Z,13.73
2023-05-16T01:08:14.420Z,13.74
2023-05-16T01:10:51.529Z,13.73
2023-05-16T01:13:25.945Z,13.76
2023-05-16T01:16:05.136Z,13.76
2023-05-16T01:18:43.847Z,13.76
2023-05-16T01:21:19.809Z,13.77
2023-05-16T01:23:54.487Z,13.79
2023-05-16T01:26:28.305Z,13.74
2023-05-16T01:28:57.370Z,13.78
2023-05-16T01:31:26.593Z,13.82
2023-05-16T01:33:54.996Z,13.73
2023-05-16T01:36:29.156Z,13.76
2023-05-16T01:39:07.292Z,13.75
2023-05-16T01:41:49.220Z,13.75
2023-05-16T01:44:32.683Z,13.66
2023-05-16T01:47:05.657Z,13.70
2023-05-16T01:49:37.993Z,13.69
2023-05-16T01:52:10.627Z,13.70
2023-05-16T01:54:44.391Z,13.64
2023-05-16T01:57:14.883Z,13.69
2023-05-16T01:59:47.300Z,13.69
2023-05-16T02:02:19.474Z,13.68
2023-05-16T02:04:48.508Z,13.69
2023-05-16T02:07:17.234Z,13.64
2023-05-16T02:09:47.495Z,13.66
2023-05-16T02:12:17.713Z,13.65
2023-05-16T02:14:47.064Z,13.64
2023-05-16T02:17:15.474Z,13.59
2023-05-16T02:19:44.929Z,13.60
2023-05-16T02:22:13.474Z,13.60
2023-05-16T02:24:42.687Z,13.62
2023-05-16T02:27:11.421Z,13.64
2023-05-16T02:29:41.538Z,13.57
2023-05-16T02:32:09.910Z,13.57
2023-05-16T02:34:38.671Z,13.57
2023-05-16T02:37:07.131Z,13.55
2023-05-16T02:39:35.867Z,13.52
2023-05-16T02:42:04.823Z,13.56
2023-05-16T02:44:33.125Z,13.55
2023-05-16T02:47:03.615Z,13.52
2023-05-16T02:49:32.482Z,13.45
2023-05-16T02:52:02.636Z,13.38
2023-05-16T02:54:30.953Z,13.31
2023-05-16T02:57:00.783Z,13.27
2023-05-16T02:59:29.149Z,13.29
2023-05-16T03:01:58.767Z,13.32
2023-05-16T03:04:29.955Z,13.34
2023-05-16T03:06:59.290Z,13.31
2023-05-16T03:09:29.755Z,13.24
2023-05-16T03:11:59.549Z,13.24
2023-05-16T03:14:29.102Z,13.24
2023-05-16T03:16:57.602Z,13.21
2023-05-16T03:19:27.630Z,13.23
2023-05-16T03:21:57.640Z,13.26
2023-05-16T03:24:27.645Z,13.26
2023-05-16T03:26:56.302Z,13.26
2023-05-16T03:29:27.011Z,13.21
2023-05-16T03:31:58.252Z,13.19
2023-05-16T03:34:26.715Z,13.22
2023-05-16T03:36:55.480Z,13.21
2023-05-16T03:39:25.386Z,13.21
2023-05-16T03:41:56.838Z,13.20
2023-05-16T03:44:25.143Z,13.16
2023-05-16T03:46:56.350Z,13.18
2023-05-16T03:49:28.531Z,13.14
2023-05-16T03:51:58.105Z,13.04
2023-05-16T03:54:27.797Z,13.11
2023-05-16T03:56:56.995Z,13.13
2023-05-16T03:59:25.503Z,13.08
2023-05-16T04:01:54.557Z,13.08
2023-05-16T04:04:22.934Z,13.11
2023-05-16T04:06:52.450Z,13.13
2023-05-16T04:09:21.252Z,13.15
2023-05-16T04:11:51.730Z,13.19
2023-05-16T04:14:21.128Z,13.19
2023-05-16T04:16:49.519Z,13.19
2023-05-16T04:19:18.831Z,13.22
2023-05-16T04:21:47.644Z,13.23
2023-05-16T04:24:17.097Z,13.23
2023-05-16T04:26:45.473Z,13.22
2023-05-16T04:29:15.937Z,13.22
2023-05-16T04:31:44.418Z,13.22
2023-05-16T04:34:13.715Z,13.24
2023-05-16T04:36:42.103Z,13.26
2023-05-16T04:39:11.399Z,13.20
2023-05-16T04:41:40.145Z,13.23
2023-05-16T04:44:08.865Z,13.21
2023-05-16T04:46:38.766Z,13.23
2023-05-16T04:49:07.710Z,13.26
2023-05-16T04:51:36.052Z,13.28
2023-05-16T04:54:05.388Z,13.28
2023-05-16T04:56:34.211Z,13.31
2023-05-16T04:59:04.538Z,13.33
2023-05-16T05:01:32.925Z,13.34
2023-05-16T05:04:03.019Z,13.33
2023-05-16T05:06:32.316Z,13.37
2023-05-16T05:09:00.715Z,13.34
2023-05-16T05:11:30.143Z,13.35
2023-05-16T05:14:00.467Z,13.36
2023-05-16T05:16:29.225Z,13.39
2023-05-16T05:18:58.146Z,13.41
2023-05-16T05:21:27.958Z,13.42
2023-05-16T05:23:56.380Z,13.34
2023-05-16T05:26:26.092Z,13.44
2023-05-16T05:29:04.793Z,13.44
2023-05-16T05:31:35.544Z,13.45
2023-05-16T05:34:04.327Z,13.47
2023-05-16T05:36:34.139Z,13.47
2023-05-16T05:39:02.622Z,13.47
2023-05-16T05:41:31.439Z,13.49
2023-05-16T05:43:59.855Z,13.50
2023-05-16T05:46:29.210Z,13.51
2023-05-16T05:48:57.653Z,13.52
2023-05-16T05:51:27.339Z,13.50
2023-05-16T05:53:57.344Z,13.57
2023-05-16T05:56:27.036Z,13.57
2023-05-16T05:58:55.596Z,13.61
2023-05-16T06:01:24.485Z,13.80
2023-05-16T06:03:53.978Z,13.99
2023-05-16T06:06:22.621Z,14.01
2023-05-16T06:08:54.643Z,14.07
2023-05-16T06:11:25.369Z,14.14
2023-05-16T06:14:18.942Z,14.15
2023-05-16T06:16:47.933Z,14.18
2023-05-16T06:19:41.720Z,14.22
2023-05-16T06:22:10.199Z,14.21
2023-05-16T06:24:39.068Z,14.26
2023-05-16T06:27:10.389Z,14.29
2023-05-16T06:29:38.842Z,14.35
2023-05-16T06:32:10.312Z,14.39
2023-05-16T06:34:58.931Z,14.45
2023-05-16T06:37:43.447Z,14.54
2023-05-16T06:40:12.521Z,14.62
2023-05-16T06:42:44.762Z,14.82
2023-05-16T06:45:13.856Z,14.95
2023-05-16T06:47:42.335Z,15.07
2023-05-16T06:50:12.004Z,15.12
2023-05-16T06:52:40.456Z,15.13
2023-05-16T06:55:18.434Z,15.11
2023-05-16T06:58:11.469Z,15.11
2023-05-16T07:00:40.062Z,15.23
2023-05-16T07:03:08.643Z,15.33
2023-05-16T07:05:37.466Z,15.42
2023-05-16T07:08:07.979Z,15.53
2023-05-16T07:10:36.953Z,15.62
2023-05-16T07:13:06.217Z,15.71
2023-05-16T07:15:36.002Z,15.78
2023-05-16T07:18:05.878Z,15.81
2023-05-16T07:20:34.859Z,16.05
2023-05-16T07:23:03.270Z,16.15
2023-05-16T07:25:32.143Z,16.18
2023-05-16T07:28:01.017Z,16.22
2023-05-16T07:30:30.932Z,16.25
2023-05-16T07:33:00.702Z,16.30
2023-05-16T07:35:29.932Z,16.30
2023-05-16T07:37:58.479Z,16.28
2023-05-16T07:40:29.322Z,16.26
2023-05-16T07:42:57.731Z,16.27
2023-05-16T07:45:27.991Z,16.30
2023-05-16T07:47:56.585Z,16.31
2023-05-16T07:50:27.158Z,16.27
2023-05-16T07:52:55.598Z,16.28
2023-05-16T07:55:24.667Z,16.30
2023-05-16T07:57:53.200Z,16.34
2023-05-16T08:00:22.874Z,16.37
2023-05-16T08:02:52.467Z,16.40
2023-05-16T08:05:20.928Z,16.40
2023-05-16T08:07:51.688Z,16.47
2023-05-16T08:10:21.193Z,16.51
2023-05-16T08:12:50.544Z,16.64
2023-05-16T08:15:19.458Z,16.66
2023-05-16T08:17:52.088Z,16.74
2023-05-16T08:20:21.054Z,16.77
2023-05-16T08:22:51.291Z,16.78
2023-05-16T08:25:20.790Z,16.83
2023-05-16T08:27:51.062Z,16.88
2023-05-16T08:30:20.854Z,16.90
2023-05-16T08:32:49.307Z,16.95
2023-05-16T08:35:18.265Z,16.99
2023-05-16T08:37:46.641Z,17.05
2023-05-16T08:40:17.612Z,17.14
2023-05-16T08:42:46.028Z,17.18
2023-05-16T08:45:16.017Z,17.19
2023-05-16T08:47:46.465Z,17.18
2023-05-16T08:50:16.921Z,17.05
2023-05-16T08:54:06.844Z,17.12
2023-05-16T08:56:38.967Z,17.05
2023-05-16T08:59:08.411Z,16.97
2023-05-16T09:01:38.028Z,16.92
2023-05-16T09:04:11.662Z,16.99
2023-05-16T09:06:40.188Z,17.02
2023-05-16T09:09:12.900Z,17.01
2023-05-16T09:11:43.878Z,16.99
2023-05-16T09:14:12.376Z,16.98
2023-05-16T09:16:41.543Z,16.93
2023-05-16T09:19:14.294Z,16.89
2023-05-16T09:21:43.168Z,16.92
2023-05-16T09:24:11.942Z,17.11
2023-05-16T09:26:41.764Z,17.33
2023-05-16T09:29:16.272Z,17.45
2023-05-16T09:31:44.793Z,17.62
2023-05-16T09:34:13.346Z,17.70
2023-05-16T09:36:43.758Z,17.88
2023-05-16T09:39:16.650Z,17.95
2023-05-16T09:41:46.853Z,18.05
2023-05-16T09:44:15.439Z,18.04
2023-05-16T09:46:50.638Z,18.08
2023-05-16T09:49:19.289Z,18.09
2023-05-16T09:51:48.847Z,18.23
2023-05-16T09:54:17.322Z,18.28
2023-05-16T09:56:53.237Z,18.27
2023-05-16T09:59:22.990Z,18.39
2023-05-16T10:01:52.122Z,18.54
2023-05-16T10:04:21.029Z,18.74
2023-05-16T10:06:52.277Z,18.92
2023-05-16T10:09:22.412Z,19.04
2023-05-16T10:11:52.675Z,19.18
2023-05-16T10:14:24.290Z,19.27
2023-05-16T10:16:53.917Z,19.35
2023-05-16T10:19:24.354Z,19.47
2023-05-16T10:22:00.111Z,19.59
2023-05-16T10:24:34.062Z,19.59
2023-05-16T10:27:04.641Z,19.64
2023-05-16T10:29:46.569Z,19.72
2023-05-16T10:32:25.523Z,19.79
2023-05-16T10:34:55.689Z,19.81
2023-05-16T10:37:25.840Z,19.88
2023-05-16T10:39:54.719Z,19.87
2023-05-16T10:42:23.642Z,19.86
2023-05-16T10:45:04.799Z,19.96
2023-05-16T10:47:35.596Z,19.98
2023-05-16T10:50:04.302Z,19.97
2023-05-16T10:52:35.532Z,19.92
2023-05-16T10:55:05.623Z,19.88
2023-05-16T10:57:34.920Z,19.89
2023-05-16T11:00:23.254Z,19.88
2023-05-16T11:02:52.161Z,19.89
2023-05-16T11:05:21.039Z,19.90
2023-05-16T11:08:05.771Z,19.89
2023-05-16T11:10:34.395Z,19.87
2023-05-16T11:13:09.902Z,19.86
2023-05-16T11:15:39.689Z,19.91
2023-05-16T11:18:11.109Z,19.95
2023-05-16T11:20:41.851Z,19.92
2023-05-16T11:23:21.717Z,20.00
2023-05-16T11:25:54.446Z,20.04
2023-05-16T11:28:25.007Z,20.02
2023-05-16T11:30:58.335Z,20.05
2023-05-16T11:33:28.255Z,20.05
2023-05-16T11:38:40.496Z,20.01
2023-05-16T11:41:12.876Z,19.98
2023-05-16T11:43:42.760Z,19.96
2023-05-16T11:46:14.502Z,19.92
2023-05-16T11:48:48.843Z,19.86
2023-05-16T11:51:20.521Z,19.83
2023-05-16T11:53:50.835Z,19.87
2023-05-16T11:56:19.571Z,19.84
2023-05-16T11:58:49.595Z,19.66
2023-05-16T12:01:19.632Z,19.21
2023-05-16T12:03:56.101Z,18.95
2023-05-16T12:06:26.034Z,18.68
2023-05-16T12:08:54.478Z,18.48
2023-05-16T12:11:25.201Z,18.33
2023-05-16T12:14:01.761Z,18.12
2023-05-16T12:16:35.560Z,17.96
2023-05-16T12:19:05.086Z,17.88
2023-05-16T12:21:33.970Z,17.65
2023-05-16T12:24:02.945Z,17.58
2023-05-16T12:26:33.505Z,17.48
2023-05-16T12:29:05.545Z,17.35
2023-05-16T12:31:38.065Z,17.22
2023-05-16T12:34:16.689Z,17.15
2023-05-16T12:36:45.564Z,17.06
2023-05-16T12:39:15.816Z,17.03
2023-05-16T12:41:44.359Z,16.93
2023-05-16T12:44:14.889Z,16.85
2023-05-16T12:46:51.799Z,16.77
2023-05-16T12:49:22.000Z,16.77
2023-05-16T12:51:52.927Z,16.71
2023-05-16T12:54:22.860Z,16.64
2023-05-16T12:56:51.935Z,16.58
2023-05-16T12:59:20.624Z,16.53
2023-05-16T13:01:50.921Z,16.46
2023-05-16T13:04:20.495Z,16.40
2023-05-16T13:06:59.186Z,16.36
2023-05-16T13:09:31.318Z,16.30
2023-05-16T13:12:01.849Z,16.25
2023-05-16T13:14:30.488Z,16.19
2023-05-16T13:17:00.256Z,16.13
2023-05-16T13:19:31.764Z,16.09
2023-05-16T13:22:00.269Z,15.95
2023-05-16T13:24:29.199Z,15.98
2023-05-16T13:26:58.120Z,15.93
2023-05-16T13:29:27.514Z,15.92
2023-05-16T13:31:56.227Z,15.85
2023-05-16T13:34:26.748Z,15.69
2023-05-16T13:36:55.239Z,15.67
2023-05-16T13:39:24.542Z,15.56
2023-05-16T13:41:53.556Z,15.50
2023-05-16T13:44:22.843Z,15.49
2023-05-16T13:46:52.901Z,15.47
2023-05-16T13:49:22.258Z,15.42
2023-05-16T13:51:53.078Z,15.37
2023-05-16T13:54:21.883Z,15.33
2023-05-16T13:56:52.089Z,15.29
2023-05-16T13:59:37.371Z,15.28
2023-05-16T14:02:09.393Z,15.22
2023-05-16T14:04:38.286Z,15.20
2023-05-16T14:07:08.224Z,15.12
2023-05-16T14:09:39.371Z,15.23
2023-05-16T14:12:08.495Z,15.26
2023-05-16T14:14:37.544Z,15.30
2023-05-16T14:17:07.525Z,15.35
2023-05-16T14:19:37.411Z,15.39
2023-05-16T14:22:06.295Z,15.44
2023-05-16T14:24:36.482Z,15.49
2023-05-16T14:27:05.100Z,15.54
2023-05-16T14:29:34.474Z,15.56
2023-05-16T14:32:03.407Z,15.59
2023-05-16T14:34:31.817Z,15.58
2023-05-16T14:37:02.238Z,15.58
2023-05-16T14:39:30.632Z,15.59
2023-05-16T14:42:01.467Z,15.60
2023-05-16T14:44:29.888Z,15.61
2023-05-16T14:46:59.186Z,15.56
2023-05-16T14:49:27.755Z,15.48
2023-05-16T14:51:57.180Z,15.52
2023-05-16T14:54:26.258Z,15.53
2023-05-16T14:56:55.667Z,15.53
2023-05-16T14:59:27.000Z,15.50
2023-05-16T15:01:55.478Z,15.52
2023-05-16T15:04:24.183Z,15.55
2023-05-16T15:06:52.582Z,15.61
2023-05-16T15:09:21.952Z,15.57
2023-05-16T15:11:50.304Z,15.67
2023-05-16T15:14:19.869Z,15.73
2023-05-16T15:16:49.703Z,15.75
2023-05-16T15:19:19.225Z,15.54
2023-05-16T15:21:47.739Z,15.70
2023-05-16T15:24:18.041Z,15.67
2023-05-16T15:26:47.306Z,15.69
2023-05-16T15:29:15.883Z,15.72
2023-05-16T15:31:44.760Z,15.76
2023-05-16T15:34:14.792Z,15.79
2023-05-16T15:36:43.166Z,15.81
2023-05-16T15:39:12.303Z,15.81
2023-05-16T15:42:01.194Z,15.79
2023-05-16T15:44:31.149Z,15.72
2023-05-16T15:46:59.625Z,15.73
2023-05-16T15:49:29.828Z,15.67
2023-05-16T15:51:58.428Z,15.63
2023-05-16T15:54:28.439Z,15.61
2023-05-16T15:56:58.079Z,15.61
2023-05-16T15:59:27.123Z,15.47
2023-05-16T16:01:55.980Z,15.58
2023-05-16T16:04:24.876Z,15.56
2023-05-16T16:06:55.192Z,15.54
2023-05-16T16:09:23.717Z,15.43
2023-05-16T16:11:56.201Z,15.40
2023-05-16T16:14:25.371Z,15.39
2023-05-16T16:16:55.434Z,15.33
2023-05-16T16:19:24.149Z,15.16
2023-05-16T16:21:55.098Z,15.25
2023-05-16T16:24:23.680Z,15.21
2023-05-16T16:26:52.861Z,15.21
2023-05-16T16:29:21.446Z,15.20
2023-05-16T16:31:50.168Z,15.21
2023-05-16T16:34:20.353Z,15.16
2023-05-16T16:36:50.754Z,15.11
2023-05-16T16:39:21.152Z,15.12
2023-05-16T16:41:50.272Z,15.11
2023-05-16T16:44:20.051Z,15.13
2023-05-16T16:46:49.852Z,15.14
2023-05-16T16:49:19.128Z,15.12
2023-05-16T16:51:50.387Z,15.11
2023-05-16T16:54:18.973Z,15.11
2023-05-16T16:56:49.947Z,15.06
2023-05-16T16:59:18.846Z,15.09
2023-05-16T17:01:47.963Z,15.05
2023-05-16T17:04:16.373Z,15.06
2023-05-16T17:06:47.795Z,15.22
2023-05-16T17:09:18.406Z,15.23
2023-05-16T17:11:49.190Z,15.17
2023-05-16T17:14:18.069Z,15.09
2023-05-16T17:16:46.703Z,15.03
2023-05-16T17:19:16.418Z,14.98
2023-05-16T17:21:45.076Z,14.90
2023-05-16T17:24:14.453Z,14.85
2023-05-16T17:26:42.971Z,14.76
2023-05-16T17:29:13.546Z,14.76
2023-05-16T17:31:42.108Z,14.76
2023-05-16T17:34:10.507Z,14.72
2023-05-16T17:36:39.310Z,14.64
2023-05-16T17:39:08.363Z,14.62
2023-05-16T17:41:36.831Z,14.53
2023-05-16T17:44:06.907Z,14.55
2023-05-16T17:46:38.705Z,14.43
2023-05-16T17:49:08.061Z,14.46
2023-05-16T17:51:55.824Z,14.47
2023-05-16T17:54:24.486Z,14.42
2023-05-16T17:56:55.166Z,13.97
2023-05-16T17:59:23.623Z,14.15
2023-05-16T18:01:54.289Z,14.34
2023-05-16T18:04:23.724Z,14.34
2023-05-16T18:06:53.780Z,14.34
2023-05-16T18:09:22.661Z,14.25
2023-05-16T18:11:51.481Z,14.11
2023-05-16T18:14:21.493Z,14.12
2023-05-16T18:16:49.916Z,14.07
2023-05-16T18:19:20.376Z,13.98
2023-05-16T18:21:49.590Z,13.93
2023-05-16T18:24:18.414Z,13.95
2023-05-16T18:26:48.762Z,13.92
2023-05-16T18:29:17.171Z,13.88
2023-05-16T18:31:46.618Z,13.86
2023-05-16T18:34:15.026Z,13.80
2023-05-16T18:36:45.444Z,13.87
2023-05-16T18:39:13.803Z,13.76
2023-05-16T18:41:46.966Z,13.81
2023-05-16T18:44:17.274Z,13.73
2023-05-16T18:46:47.064Z,13.67
2023-05-16T18:49:15.755Z,13.59
2023-05-16T18:51:45.888Z,13.64
2023-05-16T18:54:14.296Z,13.65
2023-05-16T18:56:43.946Z,13.63
2023-05-16T18:59:12.417Z,13.58
2023-05-16T19:01:41.409Z,13.51
2023-05-16T19:04:09.992Z,13.46
2023-05-16T19:06:38.932Z,13.45
2023-05-16T19:09:09.484Z,13.43
2023-05-16T19:11:37.973Z,13.40
2023-05-16T19:14:07.955Z,13.33
2023-05-16T19:16:36.389Z,12.78
2023-05-16T19:19:07.830Z,13.30
2023-05-16T19:21:36.558Z,13.24
2023-05-16T19:24:05.354Z,13.20
2023-05-16T19:26:35.155Z,13.17
2023-05-16T19:29:04.044Z,12.98
2023-05-16T19:31:33.386Z,13.12
2023-05-16T19:34:01.910Z,12.94
2023-05-16T19:36:31.423Z,13.04
2023-05-16T19:39:00.138Z,13.00
2023-05-16T19:41:29.430Z,13.00
2023-05-16T19:43:59.620Z,12.84
2023-05-16T19:46:28.009Z,12.97
2023-05-16T19:48:57.056Z,12.89
2023-05-16T19:54:15.021Z,12.94
2023-05-16T19:56:43.489Z,12.89
2023-05-16T19:59:13.665Z,12.84
2023-05-16T20:01:42.154Z,12.88
2023-05-16T20:04:11.984Z,12.45
2023-05-16T20:06:41.027Z,12.80
2023-05-16T20:09:11.123Z,12.84
2023-05-16T20:11:40.003Z,12.86
2023-05-16T20:14:09.368Z,12.75
2023-05-16T20:16:39.513Z,12.79
2023-05-16T20:19:09.589Z,12.67
2023-05-16T20:21:38.120Z,12.69
2023-05-16T20:24:07.466Z,12.66
2023-05-16T20:26:36.367Z,12.51
2023-05-16T20:29:04.816Z,12.41
2023-05-16T20:31:33.716Z,12.65
2023-05-16T20:34:03.538Z,12.63
2023-05-16T20:36:32.323Z,12.61
2023-05-16T20:39:00.888Z,12.57
2023-05-16T20:41:30.110Z,12.55
2023-05-16T20:43:58.669Z,12.56
2023-05-16T20:46:28.146Z,12.52
2023-05-16T20:48:56.714Z,12.59
2023-05-16T20:51:27.030Z,12.55
2023-05-16T20:53:56.333Z,12.52
2023-05-16T20:56:24.964Z,12.52
2023-05-16T20:58:53.436Z,12.54
2023-05-16T21:01:22.026Z,12.48
2023-05-16T21:03:50.530Z,12.50
2023-05-16T21:06:18.954Z,12.40
2023-05-16T21:08:50.492Z,12.49
2023-05-16T21:11:18.907Z,12.45
2023-05-16T21:13:48.273Z,12.34
2023-05-16T21:16:17.105Z,12.37
2023-05-16T21:18:45.909Z,12.31
2023-05-16T21:21:14.947Z,12.41
2023-05-16T21:23:43.631Z,12.37
2023-05-16T21:26:14.267Z,12.40
2023-05-16T21:28:54.470Z,12.39
2023-05-16T21:31:25.258Z,12.40
2023-05-16T21:33:53.854Z,12.40
2023-05-16T21:36:23.348Z,12.34
2023-05-16T21:38:51.847Z,12.32
2023-05-16T21:41:23.650Z,12.30
2023-05-16T21:43:53.402Z,12.32
2023-05-16T21:46:22.487Z,12.33
2023-05-16T21:48:52.165Z,12.29
2023-05-16T21:51:20.790Z,12.28
2023-05-16T21:53:50.185Z,12.25
2023-05-16T21:56:19.453Z,12.26
2023-05-16T21:58:50.559Z,12.20
2023-05-16T22:01:20.176Z,12.20
2023-05-16T22:03:50.007Z,12.14
2023-05-16T22:06:19.303Z,12.15
2023-05-16T22:08:47.988Z,12.14
2023-05-16T22:11:18.191Z,12.21
2023-05-16T22:13:47.558Z,12.17
2023-05-16T22:16:17.434Z,12.24
2023-05-16T22:18:46.623Z,12.24
2023-05-16T22:21:16.203Z,12.23
2023-05-16T22:23:45.512Z,12.15
2023-05-16T22:26:14.489Z,12.06
2023-05-16T22:28:43.267Z,12.15
2023-05-16T22:31:11.668Z,12.12
2023-05-16T22:33:42.453Z,12.15
2023-05-16T22:36:11.101Z,12.17
2023-05-16T22:38:40.117Z,12.16
2023-05-16T22:41:08.662Z,12.15
2023-05-16T22:43:37.057Z,12.18
2023-05-16T22:46:05.909Z,12.18
2023-05-16T22:48:34.585Z,12.15
2023-05-16T22:51:05.337Z,12.15
2023-05-16T22:53:33.710Z,12.14
2023-05-16T22:56:02.546Z,12.17
2023-05-16T22:58:31.192Z,12.15
2023-05-16T23:01:02.359Z,12.15
2023-05-16T23:03:31.271Z,12.13
2023-05-16T23:05:59.722Z,12.09
2023-05-16T23:08:30.437Z,12.09
2023-05-16T23:10:58.790Z,12.06
2023-05-16T23:13:27.688Z,12.01
2023-05-16T23:15:56.226Z,12.04
2023-05-16T23:18:25.233Z,12.02
2023-05-16T23:20:53.738Z,12.04
2023-05-16T23:23:23.158Z,12.07
2023-05-16T23:25:53.411Z,12.06
2023-05-16T23:28:21.896Z,12.05
2023-05-16T23:30:51.442Z,12.03
2023-05-16T23:33:20.085Z,12.02
2023-05-16T23:35:48.560Z,11.98
2023-05-16T23:38:18.214Z,11.96
2023-05-16T23:40:47.720Z,11.96
2023-05-16T23:43:17.770Z,11.93
2023-05-16T23:45:47.172Z,11.95
2023-05-16T23:48:16.301Z,11.94
2023-05-16T23:50:44.825Z,11.90
2023-05-16T23:53:14.159Z,11.94
2023-05-16T23:55:42.582Z,11.95
2023-05-16T23:58:11.936Z,11.95
